sensor_id;sensor_type;location;lat;lon;timestamp;pressure;altitude;pressure_sealevel;temperature;humidity
4044;BME280;2036;51.578;7.108;2022-08-01T00:00:35;100799.66;;;20.30;100.00
4044;BME280;2036;51.578;7.108;2022-08-01T00:03:01;100793.81;;;20.26;100.00
4044;BME280;2036;51.578;7.108;2022-08-01T00:05:27;100807.31;;;20.25;100.00
4044;BME280;2036;51.578;7.108;2022-08-01T00:07:53;100808.16;;;20.25;100.00
4044;BME280;2036;51.578;7.108;2022-08-01T00:10:19;100808.97;;;20.26;100.00
4044;BME280;2036;51.578;7.108;2022-08-01T00:12:45;100806.50;;;20.24;100.00
4044;BME280;2036;51.578;7.108;2022-08-01T00:15:13;100800.16;;;20.25;100.00
4044;BME280;2036;51.578;7.108;2022-08-01T00:17:40;100804.81;;;20.23;100.00
4044;BME280;2036;51.578;7.108;2022-08-01T00:20:12;100806.16;;;20.27;100.00
4044;BME280;2036;51.578;7.108;2022-08-01T00:22:38;100806.31;;;20.26;100.00
4044;BME280;2036;51.578;7.108;2022-08-01T00:25:05;100810.47;;;20.28;100.00
4044;BME280;2036;51.578;7.108;2022-08-01T00:27:32;100800.81;;;20.27;100.00
4044;BME280;2036;51.578;7.108;2022-08-01T00:29:58;100799.66;;;20.30;100.00
4044;BME280;2036;51.578;7.108;2022-08-01T00:32:25;100811.47;;;20.27;100.00
4044;BME280;2036;51.578;7.108;2022-08-01T00:34:51;100805.13;;;20.28;100.00
4044;BME280;2036;51.578;7.108;2022-08-01T00:37:17;100807.97;;;20.27;100.00
4044;BME280;2036;51.578;7.108;2022-08-01T00:39:43;100805.31;;;20.27;100.00
4044;BME280;2036;51.578;7.108;2022-08-01T00:42:11;100812.47;;;20.26;100.00
4044;BME280;2036;51.578;7.108;2022-08-01T00:44:38;100810.00;;;20.25;100.00
4044;BME280;2036;51.578;7.108;2022-08-01T00:47:05;100799.78;;;20.28;100.00
4044;BME280;2036;51.578;7.108;2022-08-01T00:49:31;100805.78;;;20.30;100.00
4044;BME280;2036;51.578;7.108;2022-08-01T00:51:58;100810.66;;;20.27;100.00
4044;BME280;2036;51.578;7.108;2022-08-01T00:54:25;100809.81;;;20.26;100.00
4044;BME280;2036;51.578;7.108;2022-08-01T00:56:53;100810.16;;;20.23;100.00
4044;BME280;2036;51.578;7.108;2022-08-01T00:59:21;100804.81;;;20.23;100.00
4044;BME280;2036;51.578;7.108;2022-08-01T01:01:48;100798.50;;;20.24;100.00
4044;BME280;2036;51.578;7.108;2022-08-01T01:04:15;100808.50;;;20.22;100.00
4044;BME280;2036;51.578;7.108;2022-08-01T01:18:23;100801.00;;;20.18;100.00
4044;BME280;2036;51.578;7.108;2022-08-01T01:32:52;100796.19;;;20.13;100.00
4044;BME280;2036;51.578;7.108;2022-08-01T01:34:54;100806.66;;;20.15;100.00
4044;BME280;2036;51.578;7.108;2022-08-01T01:37:23;100804.34;;;20.12;100.00
4044;BME280;2036;51.578;7.108;2022-08-01T01:39:51;100801.84;;;20.10;100.00
4044;BME280;2036;51.578;7.108;2022-08-01T01:42:19;100808.03;;;20.11;100.00
4044;BME280;2036;51.578;7.108;2022-08-01T01:44:47;100801.03;;;20.10;100.00
4044;BME280;2036;51.578;7.108;2022-08-01T01:47:16;100800.19;;;20.09;100.00
4044;BME280;2036;51.578;7.108;2022-08-01T01:49:46;100805.38;;;20.11;100.00
4044;BME280;2036;51.578;7.108;2022-08-01T01:52:16;100807.84;;;20.12;100.00
4044;BME280;2036;51.578;7.108;2022-08-01T01:54:47;100811.34;;;20.13;100.00
4044;BME280;2036;51.578;7.108;2022-08-01T01:57:15;100818.31;;;20.14;100.00
4044;BME280;2036;51.578;7.108;2022-08-01T01:59:43;100810.16;;;20.15;100.00
4044;BME280;2036;51.578;7.108;2022-08-01T02:02:10;100811.34;;;20.13;100.00
4044;BME280;2036;51.578;7.108;2022-08-01T02:04:40;100802.31;;;20.14;100.00
4044;BME280;2036;51.578;7.108;2022-08-01T02:07:13;100810.81;;;20.17;100.00
4044;BME280;2036;51.578;7.108;2022-08-01T02:09:42;100814.00;;;20.13;100.00
4044;BME280;2036;51.578;7.108;2022-08-01T02:12:11;100811.53;;;20.11;100.00
4044;BME280;2036;51.578;7.108;2022-08-01T02:14:38;100799.38;;;20.09;100.00
4044;BME280;2036;51.578;7.108;2022-08-01T02:17:12;100800.88;;;20.11;100.00
4044;BME280;2036;51.578;7.108;2022-08-01T02:19:40;100808.88;;;20.11;100.00
4044;BME280;2036;51.578;7.108;2022-08-01T02:22:27;100804.19;;;20.13;100.00
4044;BME280;2036;51.578;7.108;2022-08-01T02:28:07;100807.19;;;20.10;100.00
4044;BME280;2036;51.578;7.108;2022-08-01T02:30:36;100812.69;;;20.09;100.00
4044;BME280;2036;51.578;7.108;2022-08-01T02:33:23;100807.38;;;20.09;100.00
4044;BME280;2036;51.578;7.108;2022-08-01T02:35:54;100811.88;;;20.08;100.00
4044;BME280;2036;51.578;7.108;2022-08-01T02:38:25;100806.53;;;20.08;100.00
4044;BME280;2036;51.578;7.108;2022-08-01T02:40:54;100809.53;;;20.05;100.00
4044;BME280;2036;51.578;7.108;2022-08-01T02:43:26;100809.72;;;20.04;100.00
4044;BME280;2036;51.578;7.108;2022-08-01T02:45:59;100812.69;;;20.09;100.00
4044;BME280;2036;51.578;7.108;2022-08-01T02:48:26;100807.38;;;20.09;100.00
4044;BME280;2036;51.578;7.108;2022-08-01T02:50:58;100805.88;;;20.06;100.00
4044;BME280;2036;51.578;7.108;2022-08-01T02:53:27;100808.69;;;20.05;100.00
4044;BME280;2036;51.578;7.108;2022-08-01T02:55:58;100809.88;;;20.02;100.00
4044;BME280;2036;51.578;7.108;2022-08-01T02:58:25;100803.06;;;20.00;100.00
4044;BME280;2036;51.578;7.108;2022-08-01T03:00:52;100797.25;;;19.96;100.00
4044;BME280;2036;51.578;7.108;2022-08-01T03:03:19;100798.94;;;19.97;100.00
4044;BME280;2036;51.578;7.108;2022-08-01T03:05:46;100799.72;;;19.98;100.00
4044;BME280;2036;51.578;7.108;2022-08-01T03:08:15;100806.59;;;19.92;100.00
4044;BME280;2036;51.578;7.108;2022-08-01T03:10:45;100809.28;;;19.92;100.00
4044;BME280;2036;51.578;7.108;2022-08-01T03:13:13;100807.25;;;19.94;100.00
4044;BME280;2036;51.578;7.108;2022-08-01T03:15:42;100814.75;;;19.91;100.00
4044;BME280;2036;51.578;7.108;2022-08-01T03:18:10;100811.44;;;19.89;100.00
4044;BME280;2036;51.578;7.108;2022-08-01T03:20:37;100810.59;;;19.88;100.00
4044;BME280;2036;51.578;7.108;2022-08-01T03:23:07;100820.44;;;19.88;100.00
4044;BME280;2036;51.578;7.108;2022-08-01T03:25:38;100815.91;;;19.88;100.00
4044;BME280;2036;51.578;7.108;2022-08-01T03:28:05;100815.91;;;19.88;100.00
4044;BME280;2036;51.578;7.108;2022-08-01T03:30:33;100824.94;;;19.87;100.00
4044;BME280;2036;51.578;7.108;2022-08-01T03:32:59;100823.91;;;19.88;100.00
4044;BME280;2036;51.578;7.108;2022-08-01T03:35:34;100826.28;;;19.83;100.00
4044;BME280;2036;51.578;7.108;2022-08-01T03:38:03;100824.28;;;19.85;100.00
4044;BME280;2036;51.578;7.108;2022-08-01T03:40:56;100826.44;;;19.82;100.00
4044;BME280;2036;51.578;7.108;2022-08-01T03:43:38;100827.28;;;19.82;100.00
4044;BME280;2036;51.578;7.108;2022-08-01T03:46:11;100829.09;;;19.82;100.00
4044;BME280;2036;51.578;7.108;2022-08-01T03:48:49;100833.75;;;19.79;100.00
4044;BME280;2036;51.578;7.108;2022-08-01T03:51:18;100835.94;;;19.76;100.00
4044;BME280;2036;51.578;7.108;2022-08-01T03:53:45;100832.59;;;19.82;100.00
4044;BME280;2036;51.578;7.108;2022-08-01T03:56:18;100834.59;;;19.80;100.00
4044;BME280;2036;51.578;7.108;2022-08-01T03:58:46;100831.28;;;19.78;100.00
4044;BME280;2036;51.578;7.108;2022-08-01T04:01:13;100837.59;;;19.77;100.00
4044;BME280;2036;51.578;7.108;2022-08-01T04:03:40;100841.25;;;19.76;100.00
4044;BME280;2036;51.578;7.108;2022-08-01T04:06:07;100841.44;;;19.74;100.00
4044;BME280;2036;51.578;7.108;2022-08-01T04:08:40;100845.59;;;19.77;100.00
4044;BME280;2036;51.578;7.108;2022-08-01T04:11:08;100844.59;;;19.78;100.00
4044;BME280;2036;51.578;7.108;2022-08-01T04:13:34;100841.09;;;19.77;100.00
4044;BME280;2036;51.578;7.108;2022-08-01T04:16:00;100837.78;;;19.75;100.00
4044;BME280;2036;51.578;7.108;2022-08-01T04:18:26;100832.28;;;19.77;100.00
4044;BME280;2036;51.578;7.108;2022-08-01T04:20:52;100836.75;;;19.76;100.00
4044;BME280;2036;51.578;7.108;2022-08-01T04:23:23;100838.75;;;19.74;100.00
4044;BME280;2036;51.578;7.108;2022-08-01T04:25:50;100835.25;;;19.74;100.00
4044;BME280;2036;51.578;7.108;2022-08-01T04:28:17;100848.75;;;19.72;100.00
4044;BME280;2036;51.578;7.108;2022-08-01T04:30:46;100851.59;;;19.71;100.00
4044;BME280;2036;51.578;7.108;2022-08-01T04:33:15;100853.44;;;19.70;100.00
4044;BME280;2036;51.578;7.108;2022-08-01T04:35:46;100851.09;;;19.67;100.00
4044;BME280;2036;51.578;7.108;2022-08-01T04:38:21;100851.59;;;19.71;100.00
4044;BME280;2036;51.578;7.108;2022-08-01T04:40:48;100856.09;;;19.70;100.00
4044;BME280;2036;51.578;7.108;2022-08-01T04:43:16;100863.06;;;19.71;100.00
4044;BME280;2036;51.578;7.108;2022-08-01T04:45:43;100863.25;;;19.70;100.00
4044;BME280;2036;51.578;7.108;2022-08-01T04:48:11;100863.91;;;19.72;100.00
4044;BME280;2036;51.578;7.108;2022-08-01T04:50:38;100877.06;;;19.73;100.00
4044;BME280;2036;51.578;7.108;2022-08-01T04:53:04;100874.22;;;19.75;100.00
4044;BME280;2036;51.578;7.108;2022-08-01T04:55:30;100873.22;;;19.76;100.00
4044;BME280;2036;51.578;7.108;2022-08-01T04:57:56;100872.22;;;19.77;100.00
4044;BME280;2036;51.578;7.108;2022-08-01T05:00:22;100876.56;;;19.78;100.00
4044;BME280;2036;51.578;7.108;2022-08-01T05:02:48;100877.22;;;19.80;100.00
4044;BME280;2036;51.578;7.108;2022-08-01T05:05:14;100879.88;;;19.80;100.00
4044;BME280;2036;51.578;7.108;2022-08-01T05:07:40;100873.53;;;19.81;100.00
4044;BME280;2036;51.578;7.108;2022-08-01T05:10:06;100872.38;;;19.84;100.00
4044;BME280;2036;51.578;7.108;2022-08-01T05:12:32;100877.88;;;19.82;100.00
4044;BME280;2036;51.578;7.108;2022-08-01T05:14:59;100879.69;;;19.82;100.00
4044;BME280;2036;51.578;7.108;2022-08-01T05:17:25;100880.53;;;19.82;100.00
4044;BME280;2036;51.578;7.108;2022-08-01T05:19:51;100886.53;;;19.84;100.00
4044;BME280;2036;51.578;7.108;2022-08-01T05:22:17;100881.00;;;19.86;100.00
4044;BME280;2036;51.578;7.108;2022-08-01T05:24:43;100883.38;;;19.81;100.00
4044;BME280;2036;51.578;7.108;2022-08-01T05:27:09;100887.19;;;19.86;100.00
4044;BME280;2036;51.578;7.108;2022-08-01T05:29:35;100884.69;;;19.85;100.00
4044;BME280;2036;51.578;7.108;2022-08-01T05:32:02;100892.19;;;19.89;100.00
4044;BME280;2036;51.578;7.108;2022-08-01T05:34:31;100901.84;;;19.90;100.00
4044;BME280;2036;51.578;7.108;2022-08-01T05:36:56;100894.84;;;19.89;100.00
4044;BME280;2036;51.578;7.108;2022-08-01T05:39:22;100900.50;;;19.94;100.00
4044;BME280;2036;51.578;7.108;2022-08-01T05:41:48;100906.31;;;19.98;100.00
4044;BME280;2036;51.578;7.108;2022-08-01T05:44:14;100906.16;;;19.99;100.00
4044;BME280;2036;51.578;7.108;2022-08-01T05:46:40;100904.16;;;20.01;100.00
4044;BME280;2036;51.578;7.108;2022-08-01T05:49:06;100908.47;;;20.02;100.00
4044;BME280;2036;51.578;7.108;2022-08-01T05:51:32;100905.13;;;20.00;100.00
4044;BME280;2036;51.578;7.108;2022-08-01T05:53:58;100906.78;;;20.09;100.00
4044;BME280;2036;51.578;7.108;2022-08-01T05:56:25;100904.63;;;20.13;100.00
4044;BME280;2036;51.578;7.108;2022-08-01T05:58:51;100915.75;;;20.16;100.00
4044;BME280;2036;51.578;7.108;2022-08-01T06:01:18;100908.44;;;20.18;100.00
4044;BME280;2036;51.578;7.108;2022-08-01T06:03:44;100908.25;;;20.20;100.00
4044;BME280;2036;51.578;7.108;2022-08-01T06:06:10;100906.09;;;20.23;100.00
4044;BME280;2036;51.578;7.108;2022-08-01T06:08:36;100911.44;;;20.23;100.00
4044;BME280;2036;51.578;7.108;2022-08-01T06:11:03;100902.09;;;20.27;100.00
4044;BME280;2036;51.578;7.108;2022-08-01T06:13:29;100911.22;;;20.33;100.00
4044;BME280;2036;51.578;7.108;2022-08-01T06:15:55;100903.75;;;20.36;100.00
4044;BME280;2036;51.578;7.108;2022-08-01T06:18:21;100902.03;;;20.43;100.00
4044;BME280;2036;51.578;7.108;2022-08-01T06:20:47;100900.34;;;20.51;100.00
4044;BME280;2036;51.578;7.108;2022-08-01T06:23:13;100895.47;;;20.54;100.00
4044;BME280;2036;51.578;7.108;2022-08-01T06:25:42;100907.13;;;20.61;100.00
4044;BME280;2036;51.578;7.108;2022-08-01T06:28:08;100902.22;;;20.73;100.00
4044;BME280;2036;51.578;7.108;2022-08-01T06:30:34;100902.84;;;20.83;100.00
4044;BME280;2036;51.578;7.108;2022-08-01T06:33:00;100907.91;;;21.00;100.00
4044;BME280;2036;51.578;7.108;2022-08-01T06:35:27;100900.28;;;21.20;100.00
4044;BME280;2036;51.578;7.108;2022-08-01T06:37:56;100907.22;;;21.29;100.00
4044;BME280;2036;51.578;7.108;2022-08-01T06:40:22;100907.66;;;21.41;100.00
4044;BME280;2036;51.578;7.108;2022-08-01T06:42:48;100910.78;;;21.44;100.00
4044;BME280;2036;51.578;7.108;2022-08-01T06:45:15;100909.78;;;21.45;100.00
4044;BME280;2036;51.578;7.108;2022-08-01T06:47:43;100909.16;;;21.58;100.00
4044;BME280;2036;51.578;7.108;2022-08-01T06:50:10;100911.13;;;21.64;100.00
4044;BME280;2036;51.578;7.108;2022-08-01T06:52:37;100914.34;;;21.59;100.00
4044;BME280;2036;51.578;7.108;2022-08-01T06:55:04;100920.34;;;21.61;100.00
4044;BME280;2036;51.578;7.108;2022-08-01T06:57:30;100920.03;;;21.56;100.00
4044;BME280;2036;51.578;7.108;2022-08-01T06:59:56;100923.44;;;21.50;100.00
4044;BME280;2036;51.578;7.108;2022-08-01T07:02:23;100919.78;;;21.43;100.00
4044;BME280;2036;51.578;7.108;2022-08-01T07:04:49;100921.13;;;21.47;100.00
4044;BME280;2036;51.578;7.108;2022-08-01T07:07:15;100909.34;;;21.56;100.00
4044;BME280;2036;51.578;7.108;2022-08-01T07:09:40;100913.50;;;21.59;100.00
4044;BME280;2036;51.578;7.108;2022-08-01T07:12:08;100910.94;;;21.65;100.00
4044;BME280;2036;51.578;7.108;2022-08-01T07:14:34;100904.88;;;21.71;100.00
4044;BME280;2036;51.578;7.108;2022-08-01T07:16:59;100900.75;;;21.83;100.00
4044;BME280;2036;51.578;7.108;2022-08-01T07:19:25;100902.56;;;22.06;100.00
4044;BME280;2036;51.578;7.108;2022-08-01T07:21:51;100897.50;;;22.25;100.00
4044;BME280;2036;51.578;7.108;2022-08-01T07:24:17;100899.34;;;22.39;100.00
4044;BME280;2036;51.578;7.108;2022-08-01T07:26:46;100902.81;;;22.40;100.00
4044;BME280;2036;51.578;7.108;2022-08-01T07:29:12;100909.28;;;22.45;100.00
4044;BME280;2036;51.578;7.108;2022-08-01T07:31:39;100912.22;;;22.51;100.00
4044;BME280;2036;51.578;7.108;2022-08-01T07:34:05;100913.13;;;22.58;100.00
4044;BME280;2036;51.578;7.108;2022-08-01T07:36:31;100909.38;;;22.67;100.00
4044;BME280;2036;51.578;7.108;2022-08-01T07:38:57;100920.50;;;22.85;100.00
4044;BME280;2036;51.578;7.108;2022-08-01T07:41:23;100915.97;;;22.85;100.00
4044;BME280;2036;51.578;7.108;2022-08-01T07:43:49;100912.94;;;22.88;100.00
4044;BME280;2036;51.578;7.108;2022-08-01T07:46:16;100909.63;;;22.86;100.00
4044;BME280;2036;51.578;7.108;2022-08-01T07:48:42;100917.78;;;22.99;100.00
4044;BME280;2036;51.578;7.108;2022-08-01T07:51:08;100912.88;;;23.03;100.00
4044;BME280;2036;51.578;7.108;2022-08-01T07:53:36;100917.03;;;23.05;100.00
4044;BME280;2036;51.578;7.108;2022-08-01T07:56:02;100923.13;;;22.99;100.00
4044;BME280;2036;51.578;7.108;2022-08-01T07:58:30;100921.69;;;23.18;100.00
4044;BME280;2036;51.578;7.108;2022-08-01T08:00:56;100912.88;;;23.39;100.00
4044;BME280;2036;51.578;7.108;2022-08-01T08:03:22;100920.72;;;23.96;100.00
4044;BME280;2036;51.578;7.108;2022-08-01T08:05:48;100925.94;;;24.31;100.00
4044;BME280;2036;51.578;7.108;2022-08-01T08:08:14;100920.88;;;24.49;100.00
4044;BME280;2036;51.578;7.108;2022-08-01T08:10:41;100923.25;;;24.72;100.00
4044;BME280;2036;51.578;7.108;2022-08-01T08:13:07;100926.31;;;25.10;100.00
4044;BME280;2036;51.578;7.108;2022-08-01T08:15:33;100939.19;;;25.41;100.00
4044;BME280;2036;51.578;7.108;2022-08-01T08:17:59;100930.31;;;25.79;100.00
4044;BME280;2036;51.578;7.108;2022-08-01T08:20:24;100925.31;;;26.03;100.00
4044;BME280;2036;51.578;7.108;2022-08-01T08:22:53;100930.41;;;26.57;100.00
4044;BME280;2036;51.578;7.108;2022-08-01T08:25:22;100934.06;;;26.82;100.00
4044;BME280;2036;51.578;7.108;2022-08-01T08:27:48;100926.50;;;26.97;100.00
4044;BME280;2036;51.578;7.108;2022-08-01T08:30:15;100926.22;;;27.11;100.00
4044;BME280;2036;51.578;7.108;2022-08-01T08:32:41;100936.38;;;27.47;100.00
4044;BME280;2036;51.578;7.108;2022-08-01T08:35:08;100937.81;;;27.50;100.00
4044;BME280;2036;51.578;7.108;2022-08-01T08:37:35;100940.00;;;27.28;100.00
4044;BME280;2036;51.578;7.108;2022-08-01T08:40:04;100942.38;;;27.11;100.00
4044;BME280;2036;51.578;7.108;2022-08-01T08:42:30;100944.41;;;26.78;100.00
4044;BME280;2036;51.578;7.108;2022-08-01T08:44:55;100945.75;;;26.56;100.00
4044;BME280;2036;51.578;7.108;2022-08-01T08:47:22;100954.53;;;26.25;100.00
4044;BME280;2036;51.578;7.108;2022-08-01T08:49:52;100947.50;;;26.05;100.00
4044;BME280;2036;51.578;7.108;2022-08-01T08:52:22;100966.94;;;25.87;100.00
4044;BME280;2036;51.578;7.108;2022-08-01T08:54:50;100961.97;;;25.77;100.00
4044;BME280;2036;51.578;7.108;2022-08-01T08:57:20;100946.25;;;25.94;100.00
4044;BME280;2036;51.578;7.108;2022-08-01T08:59:46;100953.91;;;26.17;100.00
4044;BME280;2036;51.578;7.108;2022-08-01T09:02:12;100955.69;;;26.49;100.00
4044;BME280;2036;51.578;7.108;2022-08-01T09:04:38;100951.13;;;26.56;100.00
4044;BME280;2036;51.578;7.108;2022-08-01T09:07:06;100942.72;;;26.90;100.00
4044;BME280;2036;51.578;7.108;2022-08-01T09:09:34;100947.50;;;27.26;100.00
4044;BME280;2036;51.578;7.108;2022-08-01T09:12:00;100951.91;;;27.52;100.00
4044;BME280;2036;51.578;7.108;2022-08-01T09:14:27;100957.81;;;27.67;100.00
4044;BME280;2036;51.578;7.108;2022-08-01T09:17:05;100951.97;;;27.95;100.00
4044;BME280;2036;51.578;7.108;2022-08-01T09:19:44;100958.03;;;28.15;100.00
4044;BME280;2036;51.578;7.108;2022-08-01T09:22:19;100955.44;;;28.44;100.00
4044;BME280;2036;51.578;7.108;2022-08-01T09:25:06;100964.97;;;28.83;100.00
4044;BME280;2036;51.578;7.108;2022-08-01T09:27:33;100965.81;;;29.32;100.00
4044;BME280;2036;51.578;7.108;2022-08-01T09:30:19;100965.94;;;29.78;100.00
4044;BME280;2036;51.578;7.108;2022-08-01T09:33:02;100961.38;;;30.02;100.00
4044;BME280;2036;51.578;7.108;2022-08-01T09:35:34;100966.91;;;29.95;100.00
4044;BME280;2036;51.578;7.108;2022-08-01T09:38:20;100974.78;;;29.97;100.00
4044;BME280;2036;51.578;7.108;2022-08-01T09:40:58;100978.19;;;29.81;100.00
4044;BME280;2036;51.578;7.108;2022-08-01T09:43:27;100983.81;;;29.38;100.00
4044;BME280;2036;51.578;7.108;2022-08-01T09:45:54;100984.34;;;28.98;100.00
4044;BME280;2036;51.578;7.108;2022-08-01T09:48:22;100983.53;;;28.80;100.00
4044;BME280;2036;51.578;7.108;2022-08-01T09:50:51;100986.78;;;29.00;100.00
4044;BME280;2036;51.578;7.108;2022-08-01T09:53:18;100990.78;;;28.97;100.00
4044;BME280;2036;51.578;7.108;2022-08-01T09:55:44;100987.56;;;28.89;100.00
4044;BME280;2036;51.578;7.108;2022-08-01T09:58:16;100999.44;;;28.70;100.00
4044;BME280;2036;51.578;7.108;2022-08-01T10:00:42;101001.03;;;28.34;100.00
4044;BME280;2036;51.578;7.108;2022-08-01T10:03:25;101004.66;;;28.04;100.00
4044;BME280;2036;51.578;7.108;2022-08-01T10:05:52;100995.28;;;28.06;100.00
4044;BME280;2036;51.578;7.108;2022-08-01T10:08:19;100995.53;;;28.05;100.00
4044;BME280;2036;51.578;7.108;2022-08-01T10:11:10;100996.06;;;27.82;100.00
4044;BME280;2036;51.578;7.108;2022-08-01T10:13:36;100998.22;;;27.73;100.00
4044;BME280;2036;51.578;7.108;2022-08-01T10:16:03;101007.41;;;27.66;100.00
4044;BME280;2036;51.578;7.108;2022-08-01T10:18:33;101004.81;;;27.77;100.00
4044;BME280;2036;51.578;7.108;2022-08-01T10:21:02;101007.63;;;27.64;100.00
4044;BME280;2036;51.578;7.108;2022-08-01T10:23:35;101002.13;;;27.53;100.00
4044;BME280;2036;51.578;7.108;2022-08-01T10:26:02;101009.59;;;27.51;100.00
4044;BME280;2036;51.578;7.108;2022-08-01T10:28:31;100999.91;;;27.43;100.00
4044;BME280;2036;51.578;7.108;2022-08-01T10:31:00;101000.06;;;27.48;100.00
4044;BME280;2036;51.578;7.108;2022-08-01T10:33:32;101002.66;;;27.93;100.00
4044;BME280;2036;51.578;7.108;2022-08-01T10:35:58;101008.38;;;28.27;100.00
4044;BME280;2036;51.578;7.108;2022-08-01T10:38:24;101003.38;;;28.49;100.00
4044;BME280;2036;51.578;7.108;2022-08-01T10:40:50;101008.34;;;28.52;100.00
4044;BME280;2036;51.578;7.108;2022-08-01T10:43:18;101008.91;;;28.61;100.00
4044;BME280;2036;51.578;7.108;2022-08-01T10:45:44;101015.06;;;28.43;100.00
4044;BME280;2036;51.578;7.108;2022-08-01T10:48:35;101015.72;;;28.20;100.00
4044;BME280;2036;51.578;7.108;2022-08-01T10:51:05;101016.50;;;27.96;100.00
4044;BME280;2036;51.578;7.108;2022-08-01T10:53:31;101016.88;;;28.06;100.00
4044;BME280;2036;51.578;7.108;2022-08-01T10:56:04;101003.91;;;27.90;100.00
4044;BME280;2036;51.578;7.108;2022-08-01T10:58:36;101007.38;;;27.97;100.00
4044;BME280;2036;51.578;7.108;2022-08-01T11:01:25;101010.81;;;28.11;100.00
4044;BME280;2036;51.578;7.108;2022-08-01T11:04:03;101011.56;;;28.42;100.00
4044;BME280;2036;51.578;7.108;2022-08-01T11:09:04;101014.78;;;28.76;100.00
4044;BME280;2036;51.578;7.108;2022-08-01T11:11:30;101013.97;;;29.05;100.00
4044;BME280;2036;51.578;7.108;2022-08-01T11:14:06;101017.94;;;29.21;100.00
4044;BME280;2036;51.578;7.108;2022-08-01T11:16:36;101016.66;;;29.41;100.00
4044;BME280;2036;51.578;7.108;2022-08-01T11:19:07;101008.56;;;29.23;100.00
4044;BME280;2036;51.578;7.108;2022-08-01T11:22:08;101004.94;;;29.29;100.00
4044;BME280;2036;51.578;7.108;2022-08-01T11:32:49;100999.19;;;30.55;100.00
4044;BME280;2036;51.578;7.108;2022-08-01T11:35:19;101006.44;;;30.89;100.00
4044;BME280;2036;51.578;7.108;2022-08-01T11:37:47;100996.13;;;31.02;100.00
4044;BME280;2036;51.578;7.108;2022-08-01T11:40:28;101004.38;;;31.07;100.00
4044;BME280;2036;51.578;7.108;2022-08-01T11:45:53;100998.03;;;31.02;100.00
4044;BME280;2036;51.578;7.108;2022-08-01T11:48:25;100997.78;;;31.03;100.00
4044;BME280;2036;51.578;7.108;2022-08-01T11:50:54;100997.25;;;30.78;100.00
4044;BME280;2036;51.578;7.108;2022-08-01T11:53:20;100996.31;;;30.73;100.00
4044;BME280;2036;51.578;7.108;2022-08-01T11:55:54;100998.22;;;30.49;100.00
4044;BME280;2036;51.578;7.108;2022-08-01T11:58:26;100998.81;;;30.28;100.00
4044;BME280;2036;51.578;7.108;2022-08-01T12:00:58;101009.38;;;29.95;100.00
4044;BME280;2036;51.578;7.108;2022-08-01T12:03:27;101004.94;;;29.59;100.00
4044;BME280;2036;51.578;7.108;2022-08-01T12:05:54;101008.16;;;29.38;100.00
4044;BME280;2036;51.578;7.108;2022-08-01T12:08:32;101007.38;;;29.01;100.00
4044;BME280;2036;51.578;7.108;2022-08-01T12:11:01;101006.34;;;28.84;100.00
4044;BME280;2036;51.578;7.108;2022-08-01T12:13:27;101008.63;;;28.69;100.00
4044;BME280;2036;51.578;7.108;2022-08-01T12:15:54;101008.13;;;28.29;100.00
4044;BME280;2036;51.578;7.108;2022-08-01T12:18:20;101002.66;;;28.60;100.00
4044;BME280;2036;51.578;7.108;2022-08-01T12:20:46;101006.19;;;28.97;100.00
4044;BME280;2036;51.578;7.108;2022-08-01T12:23:15;101011.47;;;29.51;100.00
4044;BME280;2036;51.578;7.108;2022-08-01T12:25:42;101015.47;;;29.78;100.00
4044;BME280;2036;51.578;7.108;2022-08-01T12:28:11;101020.91;;;29.90;100.00
4044;BME280;2036;51.578;7.108;2022-08-01T12:30:40;101020.31;;;29.76;100.00
4044;BME280;2036;51.578;7.108;2022-08-01T12:33:09;101027.63;;;29.58;100.00
4044;BME280;2036;51.578;7.108;2022-08-01T12:35:37;101024.94;;;29.28;100.00
4044;BME280;2036;51.578;7.108;2022-08-01T12:38:19;101032.53;;;28.83;100.00
4044;BME280;2036;51.578;7.108;2022-08-01T12:40:48;101021.22;;;28.50;100.00
4044;BME280;2036;51.578;7.108;2022-08-01T12:43:20;101026.69;;;28.25;100.00
4044;BME280;2036;51.578;7.108;2022-08-01T12:45:49;101025.66;;;27.95;100.00
4044;BME280;2036;51.578;7.108;2022-08-01T12:48:17;101021.25;;;27.76;100.00
4044;BME280;2036;51.578;7.108;2022-08-01T12:50:50;101022.50;;;27.42;100.00
4044;BME280;2036;51.578;7.108;2022-08-01T12:53:17;101022.41;;;27.18;100.00
4044;BME280;2036;51.578;7.108;2022-08-01T12:55:53;101022.31;;;27.31;100.00
4044;BME280;2036;51.578;7.108;2022-08-01T12:58:22;101018.13;;;27.48;100.00
4044;BME280;2036;51.578;7.108;2022-08-01T13:00:50;101018.25;;;27.59;100.00
4044;BME280;2036;51.578;7.108;2022-08-01T13:03:27;101025.63;;;28.02;100.00
4044;BME280;2036;51.578;7.108;2022-08-01T13:05:57;101023.59;;;28.65;100.00
4044;BME280;2036;51.578;7.108;2022-08-01T13:08:34;101017.16;;;29.20;100.00
4044;BME280;2036;51.578;7.108;2022-08-01T13:11:12;101016.78;;;29.88;100.00
4044;BME280;2036;51.578;7.108;2022-08-01T13:13:48;101016.50;;;30.42;100.00
4044;BME280;2036;51.578;7.108;2022-08-01T13:16:20;101012.69;;;30.89;100.00
4044;BME280;2036;51.578;7.108;2022-08-01T13:18:52;101018.09;;;30.31;92.81
4044;BME280;2036;51.578;7.108;2022-08-01T13:24:12;101013.38;;;29.51;97.80
4044;BME280;2036;51.578;7.108;2022-08-01T13:26:55;101017.00;;;29.45;98.03
4044;BME280;2036;51.578;7.108;2022-08-01T13:29:34;101018.97;;;29.67;100.00
4044;BME280;2036;51.578;7.108;2022-08-01T13:32:20;101018.13;;;29.67;99.24
4044;BME280;2036;51.578;7.108;2022-08-01T13:34:47;101017.97;;;29.50;100.00
4044;BME280;2036;51.578;7.108;2022-08-01T13:37:13;101025.34;;;29.43;100.00
4044;BME280;2036;51.578;7.108;2022-08-01T13:39:38;101022.81;;;29.30;100.00
4044;BME280;2036;51.578;7.108;2022-08-01T13:42:19;101028.81;;;29.14;100.00
4044;BME280;2036;51.578;7.108;2022-08-01T13:44:45;101023.28;;;29.09;100.00
4044;BME280;2036;51.578;7.108;2022-08-01T13:47:11;101025.41;;;28.89;100.00
4044;BME280;2036;51.578;7.108;2022-08-01T13:49:37;101027.97;;;28.84;100.00
4044;BME280;2036;51.578;7.108;2022-08-01T13:52:04;101024.38;;;28.90;100.00